sensor_id;sensor_type;location;lat;lon;timestamp;pressure;altitude;pressure_sealevel;temperature;humidity
55373;BME280;41249;47.838;16.490;2023-02-16T00:00:27;100603.13;;;-6.75;86.69
55373;BME280;41249;47.838;16.490;2023-02-16T00:02:54;100594.44;;;-6.77;86.36
55373;BME280;41249;47.838;16.490;2023-02-16T00:05:32;100599.03;;;-6.77;86.37
55373;BME280;41249;47.838;16.490;2023-02-16T00:08:00;100585.00;;;-6.74;85.74
55373;BME280;41249;47.838;16.490;2023-02-16T00:10:32;100581.59;;;-6.70;86.89
55373;BME280;41249;47.838;16.490;2023-02-16T00:12:59;100579.19;;;-6.66;87.94
55373;BME280;41249;47.838;16.490;2023-02-16T00:15:44;100576.75;;;-6.68;88.65
55373;BME280;41249;47.838;16.490;2023-02-16T00:18:15;100574.00;;;-6.73;88.47
55373;BME280;41249;47.838;16.490;2023-02-16T00:20:42;100569.09;;;-6.76;89.12
55373;BME280;41249;47.838;16.490;2023-02-16T00:23:09;100574.47;;;-6.76;89.18
55373;BME280;41249;47.838;16.490;2023-02-16T00:25:36;100573.44;;;-6.75;89.68
55373;BME280;41249;47.838;16.490;2023-02-16T00:28:06;100573.38;;;-6.80;89.47
55373;BME280;41249;47.838;16.490;2023-02-16T00:30:35;100571.16;;;-6.83;90.08
55373;BME280;41249;47.838;16.490;2023-02-16T00:33:04;100569.09;;;-6.76;90.25
55373;BME280;41249;47.838;16.490;2023-02-16T00:35:30;100568.59;;;-6.73;90.33
55373;BME280;41249;47.838;16.490;2023-02-16T00:37:57;100562.16;;;-6.67;90.50
55373;BME280;41249;47.838;16.490;2023-02-16T00:40:24;100570.19;;;-6.72;90.47
55373;BME280;41249;47.838;16.490;2023-02-16T00:42:50;100567.31;;;-6.87;89.36
55373;BME280;41249;47.838;16.490;2023-02-16T00:45:18;100561.91;;;-6.87;90.08
55373;BME280;41249;47.838;16.490;2023-02-16T00:47:48;100559.59;;;-6.78;89.16
55373;BME280;41249;47.838;16.490;2023-02-16T00:50:19;100560.47;;;-6.73;89.29
55373;BME280;41249;47.838;16.490;2023-02-16T00:52:48;100558.84;;;-6.74;90.27
55373;BME280;41249;47.838;16.490;2023-02-16T00:55:24;100553.44;;;-6.74;89.53
55373;BME280;41249;47.838;16.490;2023-02-16T00:58:18;100555.38;;;-6.69;89.81
55373;BME280;41249;47.838;16.490;2023-02-16T01:00:50;100549.25;;;-6.65;89.15
55373;BME280;41249;47.838;16.490;2023-02-16T01:03:21;100548.66;;;-6.67;89.30
55373;BME280;41249;47.838;16.490;2023-02-16T01:05:48;100559.50;;;-6.62;89.53
55373;BME280;41249;47.838;16.490;2023-02-16T01:08:35;100547.19;;;-6.53;89.30
55373;BME280;41249;47.838;16.490;2023-02-16T01:11:21;100549.44;;;-6.45;89.78
55373;BME280;41249;47.838;16.490;2023-02-16T01:13:50;100541.91;;;-6.43;88.97
55373;BME280;41249;47.838;16.490;2023-02-16T01:16:22;100538.19;;;-6.32;88.80
55373;BME280;41249;47.838;16.490;2023-02-16T01:18:51;100542.84;;;-6.27;88.85
55373;BME280;41249;47.838;16.490;2023-02-16T01:21:17;100537.25;;;-6.20;89.06
55373;BME280;41249;47.838;16.490;2023-02-16T01:23:44;100541.56;;;-6.19;88.32
55373;BME280;41249;47.838;16.490;2023-02-16T01:26:14;100540.25;;;-6.12;89.27
55373;BME280;41249;47.838;16.490;2023-02-16T01:28:42;100536.91;;;-5.97;88.61
55373;BME280;41249;47.838;16.490;2023-02-16T01:31:10;100532.81;;;-6.00;89.04
55373;BME280;41249;47.838;16.490;2023-02-16T01:33:36;100536.91;;;-5.92;88.46
55373;BME280;41249;47.838;16.490;2023-02-16T01:36:04;100530.97;;;-5.89;89.15
55373;BME280;41249;47.838;16.490;2023-02-16T01:38:30;100536.44;;;-5.84;88.63
55373;BME280;41249;47.838;16.490;2023-02-16T01:41:08;100535.91;;;-5.81;89.31
55373;BME280;41249;47.838;16.490;2023-02-16T01:43:57;100531.59;;;-5.77;88.45
55373;BME280;41249;47.838;16.490;2023-02-16T01:46:51;100531.13;;;-5.69;88.30
55373;BME280;41249;47.838;16.490;2023-02-16T01:49:19;100526.31;;;-5.62;88.28
55373;BME280;41249;47.838;16.490;2023-02-16T01:54:49;100519.41;;;-5.43;88.24
55373;BME280;41249;47.838;16.490;2023-02-16T02:00:30;100508.34;;;-5.31;87.83
55373;BME280;41249;47.838;16.490;2023-02-16T02:02:57;100510.03;;;-5.25;88.29
55373;BME280;41249;47.838;16.490;2023-02-16T02:05:47;100497.56;;;-5.26;87.68
55373;BME280;41249;47.838;16.490;2023-02-16T02:13:57;100494.50;;;-5.40;86.81
55373;BME280;41249;47.838;16.490;2023-02-16T02:16:26;100485.81;;;-5.47;86.47
55373;BME280;41249;47.838;16.490;2023-02-16T02:18:53;100490.13;;;-5.51;85.95
55373;BME280;41249;47.838;16.490;2023-02-16T02:28:22;100482.16;;;-5.16;85.93
55373;BME280;41249;47.838;16.490;2023-02-16T02:31:04;100487.63;;;-5.06;86.02
55373;BME280;41249;47.838;16.490;2023-02-16T02:36:42;100484.38;;;-4.97;86.32
55373;BME280;41249;47.838;16.490;2023-02-16T02:42:47;100495.00;;;-4.81;86.18
55373;BME280;41249;47.838;16.490;2023-02-16T02:45:33;100501.78;;;-4.83;86.44
55373;BME280;41249;47.838;16.490;2023-02-16T02:48:01;100494.13;;;-5.02;86.91
55373;BME280;41249;47.838;16.490;2023-02-16T02:53:00;100503.28;;;-5.18;87.13
55373;BME280;41249;47.838;16.490;2023-02-16T02:55:29;100498.66;;;-5.17;87.27
55373;BME280;41249;47.838;16.490;2023-02-16T02:58:20;100506.00;;;-5.18;87.84
55373;BME280;41249;47.838;16.490;2023-02-16T03:01:09;100495.72;;;-5.16;88.21
55373;BME280;41249;47.838;16.490;2023-02-16T03:03:43;100504.34;;;-5.19;88.45
55373;BME280;41249;47.838;16.490;2023-02-16T03:06:29;100491.94;;;-5.05;88.09
55373;BME280;41249;47.838;16.490;2023-02-16T03:09:10;100487.66;;;-5.01;88.05
55373;BME280;41249;47.838;16.490;2023-02-16T03:11:40;100489.22;;;-5.10;87.54
55373;BME280;41249;47.838;16.490;2023-02-16T03:14:35;100487.63;;;-5.06;88.01
55373;BME280;41249;47.838;16.490;2023-02-16T03:17:16;100495.22;;;-5.03;87.44
55373;BME280;41249;47.838;16.490;2023-02-16T03:20:05;100488.72;;;-5.02;87.63
55373;BME280;41249;47.838;16.490;2023-02-16T03:22:50;100488.22;;;-4.88;87.10
55373;BME280;41249;47.838;16.490;2023-02-16T03:25:37;100496.38;;;-4.78;87.15
55373;BME280;41249;47.838;16.490;2023-02-16T03:28:25;100497.19;;;-4.73;87.03
55373;BME280;41249;47.838;16.490;2023-02-16T03:31:16;100492.53;;;-4.82;86.36
55373;BME280;41249;47.838;16.490;2023-02-16T03:33:44;100482.78;;;-4.88;86.24
55373;BME280;41249;47.838;16.490;2023-02-16T03:36:12;100477.88;;;-5.02;85.71
55373;BME280;41249;47.838;16.490;2023-02-16T03:38:39;100478.72;;;-4.96;86.19
55373;BME280;41249;47.838;16.490;2023-02-16T03:41:05;100480.66;;;-4.81;86.50
55373;BME280;41249;47.838;16.490;2023-02-16T03:43:32;100487.13;;;-4.87;85.79
55373;BME280;41249;47.838;16.490;2023-02-16T03:45:59;100477.63;;;-5.05;86.09
55373;BME280;41249;47.838;16.490;2023-02-16T03:48:26;100478.88;;;-5.33;85.85
55373;BME280;41249;47.838;16.490;2023-02-16T03:50:52;100476.84;;;-5.57;86.44
55373;BME280;41249;47.838;16.490;2023-02-16T03:53:19;100482.00;;;-5.56;86.85
55373;BME280;41249;47.838;16.490;2023-02-16T03:55:47;100483.56;;;-5.65;86.62
55373;BME280;41249;47.838;16.490;2023-02-16T03:58:16;100482.97;;;-5.72;86.64
55373;BME280;41249;47.838;16.490;2023-02-16T04:00:44;100476.22;;;-5.70;87.34
55373;BME280;41249;47.838;16.490;2023-02-16T04:03:10;100481.13;;;-5.61;87.01
55373;BME280;41249;47.838;16.490;2023-02-16T04:05:37;100482.38;;;-5.79;86.92
55373;BME280;41249;47.838;16.490;2023-02-16T04:08:05;100483.94;;;-5.93;87.64
55373;BME280;41249;47.838;16.490;2023-02-16T04:10:32;100492.72;;;-6.13;86.54
55373;BME280;41249;47.838;16.490;2023-02-16T04:12:58;100486.59;;;-6.35;87.72
55373;BME280;41249;47.838;16.490;2023-02-16T04:15:27;100487.59;;;-6.41;87.87
55373;BME280;41249;47.838;16.490;2023-02-16T04:17:54;100481.09;;;-6.45;88.05
55373;BME280;41249;47.838;16.490;2023-02-16T04:20:23;100493.44;;;-6.22;88.28
55373;BME280;41249;47.838;16.490;2023-02-16T04:22:50;100487.72;;;-6.26;88.05
55373;BME280;41249;47.838;16.490;2023-02-16T04:25:17;100489.69;;;-6.16;88.99
55373;BME280;41249;47.838;16.490;2023-02-16T04:27:44;100482.56;;;-5.96;88.45
55373;BME280;41249;47.838;16.490;2023-02-16T04:30:13;100483.22;;;-6.15;88.41
55373;BME280;41249;47.838;16.490;2023-02-16T04:32:40;100477.66;;;-6.36;87.50
55373;BME280;41249;47.838;16.490;2023-02-16T04:35:07;100478.13;;;-6.44;88.25
55373;BME280;41249;47.838;16.490;2023-02-16T04:37:34;100485.94;;;-6.47;88.87
55373;BME280;41249;47.838;16.490;2023-02-16T04:40:01;100487.28;;;-6.50;88.50
55373;BME280;41249;47.838;16.490;2023-02-16T04:42:28;100475.69;;;-6.45;89.45
55373;BME280;41249;47.838;16.490;2023-02-16T04:44:54;100484.63;;;-6.40;88.71
55373;BME280;41249;47.838;16.490;2023-02-16T04:47:21;100482.63;;;-6.22;89.47
55373;BME280;41249;47.838;16.490;2023-02-16T04:49:52;100495.00;;;-5.95;88.30
55373;BME280;41249;47.838;16.490;2023-02-16T04:52:19;100485.81;;;-5.94;87.82
55373;BME280;41249;47.838;16.490;2023-02-16T04:54:45;100484.47;;;-5.91;88.31
55373;BME280;41249;47.838;16.490;2023-02-16T04:57:12;100493.59;;;-6.02;88.65
55373;BME280;41249;47.838;16.490;2023-02-16T04:59:39;100492.00;;;-5.98;88.78
55373;BME280;41249;47.838;16.490;2023-02-16T05:02:05;100481.75;;;-5.96;88.00
55373;BME280;41249;47.838;16.490;2023-02-16T05:04:32;100479.59;;;-5.94;88.18
55373;BME280;41249;47.838;16.490;2023-02-16T05:06:59;100476.22;;;-5.70;87.71
55373;BME280;41249;47.838;16.490;2023-02-16T05:09:26;100486.53;;;-5.67;88.09
55373;BME280;41249;47.838;16.490;2023-02-16T05:11:53;100485.75;;;-5.57;88.12
55373;BME280;41249;47.838;16.490;2023-02-16T05:14:38;100478.22;;;-5.55;88.62
55373;BME280;41249;47.838;16.490;2023-02-16T05:17:13;100480.31;;;-5.62;87.75
55373;BME280;41249;47.838;16.490;2023-02-16T05:19:42;100473.78;;;-5.71;87.55
55373;BME280;41249;47.838;16.490;2023-02-16T05:22:09;100483.59;;;-5.60;87.33
55373;BME280;41249;47.838;16.490;2023-02-16T05:24:36;100480.09;;;-5.55;88.28
55373;BME280;41249;47.838;16.490;2023-02-16T05:27:05;100491.53;;;-5.43;87.05
55373;BME280;41249;47.838;16.490;2023-02-16T05:29:32;100484.97;;;-5.57;87.56
55373;BME280;41249;47.838;16.490;2023-02-16T05:31:59;100490.94;;;-5.55;87.87
55373;BME280;41249;47.838;16.490;2023-02-16T05:34:30;100489.88;;;-5.44;87.76
55373;BME280;41249;47.838;16.490;2023-02-16T05:36:56;100489.09;;;-5.40;87.43
55373;BME280;41249;47.838;16.490;2023-02-16T05:39:23;100482.09;;;-5.36;86.95
55373;BME280;41249;47.838;16.490;2023-02-16T05:41:50;100486.09;;;-5.48;86.97
55373;BME280;41249;47.838;16.490;2023-02-16T05:44:17;100477.59;;;-5.67;86.98
55373;BME280;41249;47.838;16.490;2023-02-16T05:46:44;100486.28;;;-5.65;87.39
55373;BME280;41249;47.838;16.490;2023-02-16T05:49:12;100480.50;;;-5.79;87.00
55373;BME280;41249;47.838;16.490;2023-02-16T05:51:39;100484.06;;;-5.73;87.06
55373;BME280;41249;47.838;16.490;2023-02-16T05:54:06;100489.94;;;-5.81;87.30
55373;BME280;41249;47.838;16.490;2023-02-16T05:56:33;100498.47;;;-5.99;87.10
55373;BME280;41249;47.838;16.490;2023-02-16T05:59:00;100502.78;;;-6.03;86.73
55373;BME280;41249;47.838;16.490;2023-02-16T06:01:27;100505.81;;;-5.95;86.41
55373;BME280;41249;47.838;16.490;2023-02-16T06:03:54;100508.25;;;-5.93;87.00
55373;BME280;41249;47.838;16.490;2023-02-16T06:06:21;100499.84;;;-5.97;87.57
55373;BME280;41249;47.838;16.490;2023-02-16T06:08:47;100503.91;;;-5.94;86.51
55373;BME280;41249;47.838;16.490;2023-02-16T06:11:14;100514.22;;;-5.91;87.12
55373;BME280;41249;47.838;16.490;2023-02-16T06:13:59;100513.66;;;-5.93;87.46
55373;BME280;41249;47.838;16.490;2023-02-16T06:16:29;100512.59;;;-5.87;86.91
55373;BME280;41249;47.838;16.490;2023-02-16T06:18:57;100519.38;;;-5.85;87.16
55373;BME280;41249;47.838;16.490;2023-02-16T06:21:25;100505.41;;;-5.72;87.49
55373;BME280;41249;47.838;16.490;2023-02-16T06:23:52;100506.25;;;-5.71;87.30
55373;BME280;41249;47.838;16.490;2023-02-16T06:26:18;100507.34;;;-5.67;86.87
55373;BME280;41249;47.838;16.490;2023-02-16T06:28:45;100510.59;;;-5.70;86.92
55373;BME280;41249;47.838;16.490;2023-02-16T06:31:12;100507.69;;;-5.53;87.73
55373;BME280;41249;47.838;16.490;2023-02-16T06:33:39;100510.75;;;-5.35;86.84
55373;BME280;41249;47.838;16.490;2023-02-16T06:36:06;100507.56;;;-5.27;87.03
55373;BME280;41249;47.838;16.490;2023-02-16T06:38:33;100505.88;;;-5.43;86.03
55373;BME280;41249;47.838;16.490;2023-02-16T06:40:59;100504.44;;;-5.55;86.07
55373;BME280;41249;47.838;16.490;2023-02-16T06:43:26;100495.47;;;-5.66;85.32
55373;BME280;41249;47.838;16.490;2023-02-16T06:45:56;100494.19;;;-5.48;86.03
55373;BME280;41249;47.838;16.490;2023-02-16T06:48:22;100491.47;;;-5.53;85.48
55373;BME280;41249;47.838;16.490;2023-02-16T06:50:49;100496.66;;;-5.42;85.58
55373;BME280;41249;47.838;16.490;2023-02-16T06:53:16;100498.00;;;-5.44;85.02
55373;BME280;41249;47.838;16.490;2023-02-16T06:55:43;100500.94;;;-5.51;84.19
55373;BME280;41249;47.838;16.490;2023-02-16T06:58:10;100500.03;;;-5.67;84.86
55373;BME280;41249;47.838;16.490;2023-02-16T07:00:37;100504.13;;;-5.64;84.52
55373;BME280;41249;47.838;16.490;2023-02-16T07:03:03;100500.91;;;-5.61;84.18
55373;BME280;41249;47.838;16.490;2023-02-16T07:05:30;100514.50;;;-5.46;85.08
55373;BME280;41249;47.838;16.490;2023-02-16T07:07:57;100500.94;;;-5.51;83.78
55373;BME280;41249;47.838;16.490;2023-02-16T07:10:23;100507.72;;;-5.48;84.71
55373;BME280;41249;47.838;16.490;2023-02-16T07:12:50;100500.44;;;-5.48;84.96
55373;BME280;41249;47.838;16.490;2023-02-16T07:15:16;100509.06;;;-5.51;84.80
55373;BME280;41249;47.838;16.490;2023-02-16T07:17:43;100514.84;;;-5.27;84.67
55373;BME280;41249;47.838;16.490;2023-02-16T07:20:10;100508.97;;;-5.09;85.47
55373;BME280;41249;47.838;16.490;2023-02-16T07:22:38;100506.84;;;-4.97;84.95
55373;BME280;41249;47.838;16.490;2023-02-16T07:25:05;100516.09;;;-4.98;83.64
55373;BME280;41249;47.838;16.490;2023-02-16T07:27:32;100510.56;;;-5.23;83.62
55373;BME280;41249;47.838;16.490;2023-02-16T07:29:58;100509.38;;;-5.42;83.79
55373;BME280;41249;47.838;16.490;2023-02-16T07:32:25;100509.16;;;-5.36;84.09
55373;BME280;41249;47.838;16.490;2023-02-16T07:34:52;100504.81;;;-5.32;84.43
55373;BME280;41249;47.838;16.490;2023-02-16T07:37:19;100504.06;;;-5.22;84.70
55373;BME280;41249;47.838;16.490;2023-02-16T07:39:45;100504.84;;;-5.27;84.22
55373;BME280;41249;47.838;16.490;2023-02-16T07:42:12;100511.66;;;-5.14;84.70
55373;BME280;41249;47.838;16.490;2023-02-16T07:44:38;100506.06;;;-4.87;84.74
55373;BME280;41249;47.838;16.490;2023-02-16T07:47:05;100499.34;;;-4.75;85.03
55373;BME280;41249;47.838;16.490;2023-02-16T07:49:31;100506.44;;;-4.44;84.72
55373;BME280;41249;47.838;16.490;2023-02-16T07:51:58;100504.25;;;-4.52;84.73
55373;BME280;41249;47.838;16.490;2023-02-16T07:54:25;100513.22;;;-4.56;84.19
55373;BME280;41249;47.838;16.490;2023-02-16T07:56:51;100514.31;;;-4.22;84.78
55373;BME280;41249;47.838;16.490;2023-02-16T07:59:18;100507.81;;;-3.96;84.81
55373;BME280;41249;47.838;16.490;2023-02-16T08:01:44;100511.88;;;-3.83;84.17
55373;BME280;41249;47.838;16.490;2023-02-16T08:04:11;100514.31;;;-3.72;84.17
55373;BME280;41249;47.838;16.490;2023-02-16T08:06:38;100515.13;;;-3.81;82.95
55373;BME280;41249;47.838;16.490;2023-02-16T08:09:05;100518.09;;;-3.78;83.84
55373;BME280;41249;47.838;16.490;2023-02-16T08:11:31;100518.66;;;-3.65;83.45
55373;BME280;41249;47.838;16.490;2023-02-16T08:13:58;100519.16;;;-3.58;83.52
55373;BME280;41249;47.838;16.490;2023-02-16T08:16:26;100521.84;;;-3.38;83.70
55373;BME280;41249;47.838;16.490;2023-02-16T08:18:58;100525.59;;;-3.24;83.60
55373;BME280;41249;47.838;16.490;2023-02-16T08:21:29;100515.78;;;-3.20;82.57
55373;BME280;41249;47.838;16.490;2023-02-16T08:24:01;100525.59;;;-3.24;82.10
55373;BME280;41249;47.838;16.490;2023-02-16T08:26:36;100523.66;;;-3.19;82.11
55373;BME280;41249;47.838;16.490;2023-02-16T08:29:03;100525.06;;;-3.26;81.20
55373;BME280;41249;47.838;16.490;2023-02-16T08:31:33;100527.00;;;-3.47;80.95
55373;BME280;41249;47.838;16.490;2023-02-16T08:34:01;100523.19;;;-3.41;81.82
55373;BME280;41249;47.838;16.490;2023-02-16T08:36:33;100522.84;;;-3.14;82.29
55373;BME280;41249;47.838;16.490;2023-02-16T08:39:05;100525.75;;;-3.00;82.43
55373;BME280;41249;47.838;16.490;2023-02-16T08:41:35;100517.34;;;-2.99;81.53
55373;BME280;41249;47.838;16.490;2023-02-16T08:44:06;100519.53;;;-3.01;80.73
55373;BME280;41249;47.838;16.490;2023-02-16T08:46:34;100523.84;;;-2.95;80.80
55373;BME280;41249;47.838;16.490;2023-02-16T08:49:01;100515.66;;;-2.90;80.38
55373;BME280;41249;47.838;16.490;2023-02-16T08:51:30;100518.56;;;-2.71;81.32
55373;BME280;41249;47.838;16.490;2023-02-16T08:53:58;100515.50;;;-2.60;81.28
55373;BME280;41249;47.838;16.490;2023-02-16T08:56:26;100517.72;;;-2.67;81.85
55373;BME280;41249;47.838;16.490;2023-02-16T08:58:55;100513.41;;;-2.78;81.22
55373;BME280;41249;47.838;16.490;2023-02-16T09:01:22;100515.09;;;-2.87;81.47
55373;BME280;41249;47.838;16.490;2023-02-16T09:03:49;100519.44;;;-2.81;81.15
55373;BME280;41249;47.838;16.490;2023-02-16T09:06:18;100521.31;;;-2.76;81.44
55373;BME280;41249;47.838;16.490;2023-02-16T09:08:51;100523.69;;;-2.65;80.95
55373;BME280;41249;47.838;16.490;2023-02-16T09:11:18;100530.75;;;-2.64;81.61
55373;BME280;41249;47.838;16.490;2023-02-16T09:13:46;100528.78;;;-2.53;81.40
55373;BME280;41249;47.838;16.490;2023-02-16T09:16:19;100530.56;;;-2.33;80.91
55373;BME280;41249;47.838;16.490;2023-02-16T09:18:46;100525.75;;;-2.47;81.03
55373;BME280;41249;47.838;16.490;2023-02-16T09:21:16;100526.19;;;-2.29;80.81
55373;BME280;41249;47.838;16.490;2023-02-16T09:23:45;100527.50;;;-2.22;80.37
55373;BME280;41249;47.838;16.490;2023-02-16T09:26:16;100532.66;;;-2.25;79.79
55373;BME280;41249;47.838;16.490;2023-02-16T09:28:44;100528.66;;;-2.33;79.17
55373;BME280;41249;47.838;16.490;2023-02-16T09:31:17;100533.16;;;-2.18;79.29
55373;BME280;41249;47.838;16.490;2023-02-16T09:33:56;100529.13;;;-2.21;79.10
55373;BME280;41249;47.838;16.490;2023-02-16T09:36:23;100533.69;;;-2.11;80.30
55373;BME280;41249;47.838;16.490;2023-02-16T09:38:50;100533.59;;;-2.01;79.92
55373;BME280;41249;47.838;16.490;2023-02-16T09:46:41;100540.19;;;-2.12;78.96
55373;BME280;41249;47.838;16.490;2023-02-16T09:49:30;100539.38;;;-2.13;79.52
55373;BME280;41249;47.838;16.490;2023-02-16T09:52:38;100539.53;;;-1.94;78.39
55373;BME280;41249;47.838;16.490;2023-02-16T09:55:14;100528.72;;;-2.04;78.22
55373;BME280;41249;47.838;16.490;2023-02-16T10:00:39;100540.38;;;-1.70;79.24
55373;BME280;41249;47.838;16.490;2023-02-16T10:08:29;100542.28;;;-1.70;74.87
55373;BME280;41249;47.838;16.490;2023-02-16T10:11:24;100543.28;;;-1.56;76.23
55373;BME280;41249;47.838;16.490;2023-02-16T10:17:22;100526.66;;;-1.08;77.60
55373;BME280;41249;47.838;16.490;2023-02-16T10:20:20;100527.69;;;-1.03;77.46
55373;BME280;41249;47.838;16.490;2023-02-16T10:23:03;100529.03;;;-1.25;76.75
55373;BME280;41249;47.838;16.490;2023-02-16T10:25:41;100528.88;;;-1.10;77.03
55373;BME280;41249;47.838;16.490;2023-02-16T10:30:53;100530.06;;;-1.21;76.98
55373;BME280;41249;47.838;16.490;2023-02-16T10:36:25;100517.44;;;-1.12;77.37
55373;BME280;41249;47.838;16.490;2023-02-16T10:39:05;100520.84;;;-0.77;76.82
55373;BME280;41249;47.838;16.490;2023-02-16T10:41:43;100517.16;;;-0.68;75.45
55373;BME280;41249;47.838;16.490;2023-02-16T10:44:24;100515.06;;;-0.94;75.05
55373;BME280;41249;47.838;16.490;2023-02-16T10:46:57;100516.00;;;-1.04;76.54
55373;BME280;41249;47.838;16.490;2023-02-16T10:49:28;100505.69;;;-1.07;75.60
55373;BME280;41249;47.838;16.490;2023-02-16T10:51:56;100505.41;;;-0.87;76.80
55373;BME280;41249;47.838;16.490;2023-02-16T10:54:27;100506.81;;;-0.89;76.43
55373;BME280;41249;47.838;16.490;2023-02-16T10:57:03;100498.72;;;-0.76;74.90
55373;BME280;41249;47.838;16.490;2023-02-16T10:59:39;100492.09;;;-0.70;74.25
55373;BME280;41249;47.838;16.490;2023-02-16T11:02:27;100492.38;;;-0.71;74.64
55373;BME280;41249;47.838;16.490;2023-02-16T11:04:56;100493.84;;;-0.97;73.92
55373;BME280;41249;47.838;16.490;2023-02-16T11:07:26;100493.16;;;-1.32;72.87
55373;BME280;41249;47.838;16.490;2023-02-16T11:09:55;100490.97;;;-1.30;74.47
55373;BME280;41249;47.838;16.490;2023-02-16T11:14:56;100471.97;;;-0.55;75.71
55373;BME280;41249;47.838;16.490;2023-02-16T11:17:24;100468.63;;;-0.33;76.24
55373;BME280;41249;47.838;16.490;2023-02-16T11:19:55;100464.56;;;-0.17;75.32
55373;BME280;41249;47.838;16.490;2023-02-16T11:22:37;100463.28;;;-0.06;74.92
55373;BME280;41249;47.838;16.490;2023-02-16T11:27:55;100453.41;;;-0.53;74.67
55373;BME280;41249;47.838;16.490;2023-02-16T11:30:35;100455.22;;;-0.86;74.09
55373;BME280;41249;47.838;16.490;2023-02-16T11:33:05;100457.31;;;-0.59;75.20
55373;BME280;41249;47.838;16.490;2023-02-16T11:35:44;100450.97;;;-0.55;74.67
55373;BME280;41249;47.838;16.490;2023-02-16T11:38:35;100452.16;;;-0.10;74.19
55373;BME280;41249;47.838;16.490;2023-02-16T11:41:04;100456.56;;;0.18;74.45
55373;BME280;41249;47.838;16.490;2023-02-16T11:43:35;100444.84;;;0.18;74.72
55373;BME280;41249;47.838;16.490;2023-02-16T11:46:11;100445.63;;;0.18;73.78
55373;BME280;41249;47.838;16.490;2023-02-16T11:48:40;100441.31;;;0.31;75.04
55373;BME280;41249;47.838;16.490;2023-02-16T11:51:11;100440.00;;;0.42;74.58
55373;BME280;41249;47.838;16.490;2023-02-16T11:53:42;100436.25;;;0.52;72.92
55373;BME280;41249;47.838;16.490;2023-02-16T11:56:25;100446.66;;;0.36;71.81
55373;BME280;41249;47.838;16.490;2023-02-16T12:01:55;100435.66;;;0.55;71.24
55373;BME280;41249;47.838;16.490;2023-02-16T12:07:40;100425.53;;;0.42;71.61
55373;BME280;41249;47.838;16.490;2023-02-16T12:10:24;100413.41;;;0.20;73.57
55373;BME280;41249;47.838;16.490;2023-02-16T12:13:02;100411.25;;;0.17;73.76
55373;BME280;41249;47.838;16.490;2023-02-16T12:15:58;100412.59;;;0.61;72.33
55373;BME280;41249;47.838;16.490;2023-02-16T12:28:19;100398.47;;;-0.14;73.65
55373;BME280;41249;47.838;16.490;2023-02-16T12:31:11;100387.38;;;0.09;73.10
55373;BME280;41249;47.838;16.490;2023-02-16T12:34:06;100380.41;;;0.03;73.75
55373;BME280;41249;47.838;16.490;2023-02-16T12:45:02;100370.72;;;0.25;73.38
55373;BME280;41249;47.838;16.490;2023-02-16T12:47:34;100374.75;;;0.13;73.29
55373;BME280;41249;47.838;16.490;2023-02-16T12:50:28;100379.50;;;0.08;73.65
55373;BME280;41249;47.838;16.490;2023-02-16T12:52:58;100369.06;;;-0.04;74.26
55373;BME280;41249;47.838;16.490;2023-02-16T13:00:45;100358.91;;;-0.44;74.52
55373;BME280;41249;47.838;16.490;2023-02-16T13:05:55;100358.19;;;-0.68;75.27
55373;BME280;41249;47.838;16.490;2023-02-16T13:13:39;100351.53;;;-0.94;75.22
55373;BME280;41249;47.838;16.490;2023-02-16T13:16:25;100348.22;;;-1.10;75.94
55373;BME280;41249;47.838;16.490;2023-02-16T13:18:56;100339.81;;;-1.14;76.30
55373;BME280;41249;47.838;16.490;2023-02-16T13:24:42;100336.00;;;-1.31;76.28
55373;BME280;41249;47.838;16.490;2023-02-16T13:27:27;100335.56;;;-1.20;76.07
55373;BME280;41249;47.838;16.490;2023-02-16T13:45:09;100321.25;;;-0.93;75.79
55373;BME280;41249;47.838;16.490;2023-02-16T13:47:33;100322.31;;;-0.75;76.21
55373;BME280;41249;47.838;16.490;2023-02-16T13:50:07;100325.22;;;-0.53;76.26
55373;BME280;41249;47.838;16.490;2023-02-16T13:52:38;100320.97;;;-0.59;76.54
55373;BME280;41249;47.838;16.490;2023-02-16T13:55:29;100321.81;;;-0.77;76.11
55373;BME280;41249;47.838;16.490;2023-02-16T13:58:01;100317.03;;;-0.85;76.68
55373;BME280;41249;47.838;16.490;2023-02-16T14:00:56;100320.00;;;-1.00;76.57
55373;BME280;41249;47.838;16.490;2023-02-16T14:05:54;100321.97;;;-0.87;77.22
55373;BME280;41249;47.838;16.490;2023-02-16T14:08:28;100319.84;;;-0.90;77.14
55373;BME280;41249;47.838;16.490;2023-02-16T14:11:02;100311.81;;;-1.00;77.29
55373;BME280;41249;47.838;16.490;2023-02-16T14:16:10;100327.19;;;-0.91;77.58
55373;BME280;41249;47.838;16.490;2023-02-16T14:18:52;100314.53;;;-1.00;77.56
55373;BME280;41249;47.838;16.490;2023-02-16T14:21:39;100315.28;;;-0.95;78.16
55373;BME280;41249;47.838;16.490;2023-02-16T14:24:30;100309.53;;;-0.93;78.15
55373;BME280;41249;47.838;16.490;2023-02-16T14:27:08;100311.00;;;-0.82;78.41
55373;BME280;41249;47.838;16.490;2023-02-16T14:29:36;100308.75;;;-0.94;77.95
55373;BME280;41249;47.838;16.490;2023-02-16T14:32:26;100310.38;;;-1.12;78.61
55373;BME280;41249;47.838;16.490;2023-02-16T14:35:05;100306.44;;;-0.87;78.62
55373;BME280;41249;47.838;16.490;2023-02-16T14:37:40;100311.66;;;-0.90;78.30
55373;BME280;41249;47.838;16.490;2023-02-16T14:43:02;100308.91;;;-0.72;78.29
55373;BME280;41249;47.838;16.490;2023-02-16T14:57:34;100311.75;;;-0.95;77.62
55373;BME280;41249;47.838;16.490;2023-02-16T15:05:39;100315.06;;;-1.54;77.17
55373;BME280;41249;47.838;16.490;2023-02-16T15:08:27;100315.41;;;-1.61;78.39
55373;BME280;41249;47.838;16.490;2023-02-16T15:11:19;100317.25;;;-1.75;78.27
55373;BME280;41249;47.838;16.490;2023-02-16T15:13:48;100310.59;;;-1.88;78.03
55373;BME280;41249;47.838;16.490;2023-02-16T15:16:20;100311.41;;;-1.87;78.91
55373;BME280;41249;47.838;16.490;2023-02-16T15:18:50;100307.22;;;-1.80;79.52
55373;BME280;41249;47.838;16.490;2023-02-16T15:23:52;100298.78;;;-2.25;79.87